Pagina principale
METAR-TAF:

METAR-TAF

Aeroporti :

Aurillac, Francia

latitudine: 44-53N, longitudine: 002-25E, altezza: 639 m

Osservazione

Il bollettino è stato emesso 33 minuti fa, alle 06:00 UTC
Vento 2 kt da direzioni variabili
Temperature -4°C
Umidità 100%
Pressione 1010 hPa
Visibilità 10 km o più

METAR: LFLW 180600Z AUTO VRB02KT 9999 ////// M04/M04 Q1010

Ora: 07:33 (06:33 UTC)

Previsione

Il bollettino è stato emesso 1 ora e 33 minuti fa, alle 05:00 UTC
Previsione valida dal 18 alle 06 UTC al 18 alle 15 UTC
Vento 3 kt da direzioni variabili
Visibilità: 5000 m
Evoluzione graduale
dal 18 alle 06 UTC al 18 alle 08 UTC
Visibilità 10 km o più
nessuna nube inferiore a 1500 m e nessun cumulonembo

TAF: LFLW 180500Z 1806/1815 VRB03KT 5000 NSC BECMG 1806/1808 CAVOK

Osservazioni e previsioni meteorologiche di più di 4000 aeroporti (messaggi METAR e TAF).

Le stazioni disponibili sono rappresentate dai dischi gialli e rossi sulla carta.

Puntare il mouse per vedere il nome della stazione.

Clicca sopra per visualizzare le osservazioni e previsioni meteorologiche.

Per cambiare la mappa : fare clic sui pulsanti verdi con una croce nera per ingrandire, il pulsante verde con un trattino per diminuire, o sulla freccia verde per le mappe adiacenti.


METAR-TAF: